createdAt,value
2018-04-25T00:00:04.528Z,12.50
2018-04-25T00:06:08.970Z,12.50
2018-04-25T00:12:13.434Z,12.40
2018-04-25T00:18:17.843Z,12.40
2018-04-25T00:24:22.261Z,12.40
2018-04-25T00:30:27.420Z,12.40
2018-04-25T00:36:31.967Z,12.40
2018-04-25T00:42:36.335Z,12.50
2018-04-25T00:48:40.724Z,12.50
2018-04-25T00:54:45.131Z,12.50
2018-04-25T01:00:49.499Z,12.50
2018-04-25T01:06:53.934Z,12.40
2018-04-25T01:12:59.241Z,12.50
2018-04-25T01:19:03.640Z,12.40
2018-04-25T01:25:09.816Z,12.50
2018-04-25T01:31:33.669Z,12.50
2018-04-25T01:37:55.505Z,12.50
2018-04-25T01:43:59.928Z,12.50
2018-04-25T01:50:15.158Z,12.50
2018-04-25T01:56:37.379Z,12.60
2018-04-25T02:02:47.599Z,12.20
2018-04-25T02:08:51.776Z,12.20
2018-04-25T02:14:56.323Z,12.00
2018-04-25T02:21:00.700Z,12.10
2018-04-25T02:27:05.189Z,12.10
2018-04-25T02:33:09.591Z,12.10
2018-04-25T02:39:14.153Z,12.10
2018-04-25T02:45:19.344Z,12.20
2018-04-25T02:51:24.011Z,12.20
2018-04-25T02:57:28.406Z,12.50
2018-04-25T03:03:32.786Z,12.80
2018-04-25T03:09:37.217Z,13.10
2018-04-25T03:15:41.615Z,13.50
2018-04-25T03:21:45.973Z,13.60
2018-04-25T03:27:50.415Z,13.70
2018-04-25T03:33:55.566Z,13.90
2018-04-25T03:39:59.919Z,13.80
2018-04-25T03:46:04.417Z,13.90
2018-04-25T03:52:08.781Z,14.00
2018-04-25T03:58:13.190Z,14.10
2018-04-25T04:04:17.888Z,14.10
2018-04-25T04:10:23.002Z,14.10
2018-04-25T04:16:27.634Z,14.10
2018-04-25T04:22:32.181Z,14.10
2018-04-25T04:28:36.621Z,14.10
2018-04-25T04:34:41.771Z,14.10
2018-04-25T04:40:46.186Z,14.00
2018-04-25T04:46:51.399Z,14.00
2018-04-25T04:52:55.768Z,14.00
2018-04-25T04:59:00.154Z,14.10
2018-04-25T05:05:05.451Z,14.10
2018-04-25T05:11:09.808Z,14.10
2018-04-25T05:17:14.211Z,14.10
2018-04-25T05:23:18.650Z,14.20
2018-04-25T05:29:23.872Z,14.20
2018-04-25T05:35:28.239Z,14.20
2018-04-25T05:41:32.603Z,14.20
2018-04-25T05:47:37.092Z,14.20
2018-04-25T05:53:41.814Z,14.20
2018-04-25T05:59:46.247Z,14.30
2018-04-25T06:05:50.638Z,14.40
2018-04-25T06:11:55.108Z,14.50
2018-04-25T06:17:59.488Z,14.60
2018-04-25T06:24:03.870Z,14.70
2018-04-25T06:30:08.351Z,14.80
2018-04-25T06:36:12.829Z,14.80
2018-04-25T06:42:17.203Z,14.90
2018-04-25T06:48:21.617Z,15.40
2018-04-25T06:54:25.993Z,15.80
2018-04-25T07:00:30.381Z,16.20
2018-04-25T07:06:35.515Z,16.50
2018-04-25T07:12:39.893Z,16.50
2018-04-25T07:18:44.233Z,16.70
2018-04-25T07:24:49.371Z,17.00
2018-04-25T07:30:53.803Z,16.90
2018-04-25T07:36:58.939Z,16.50
2018-04-25T07:43:03.295Z,16.50
2018-04-25T07:49:07.676Z,16.30
2018-04-25T07:55:12.058Z,16.70
2018-04-25T08:01:16.407Z,16.40
2018-04-25T08:07:20.770Z,16.10
2018-04-25T08:13:43.754Z,15.90
2018-04-25T08:20:05.907Z,15.90
2018-04-25T08:26:10.401Z,15.80
2018-04-25T08:32:14.782Z,15.40
2018-04-25T08:38:19.185Z,15.10
2018-04-25T08:44:23.604Z,14.90
2018-04-25T08:50:28.011Z,14.80
2018-04-25T08:56:32.772Z,14.20
2018-04-25T09:02:37.252Z,13.90
2018-04-25T09:08:41.603Z,13.80
2018-04-25T09:14:45.987Z,13.70
2018-04-25T09:20:50.355Z,13.30
2018-04-25T09:26:54.730Z,13.40
2018-04-25T09:32:59.146Z,13.60
2018-04-25T09:39:04.009Z,13.80
2018-04-25T09:45:08.411Z,14.00
2018-04-25T09:51:12.781Z,14.00
2018-04-25T09:57:17.212Z,14.10
2018-04-25T10:03:23.351Z,14.30
2018-04-25T10:09:27.907Z,14.50
2018-04-25T10:15:33.220Z,15.90
2018-04-25T10:21:37.697Z,15.80
2018-04-25T10:27:42.062Z,16.50
2018-04-25T10:33:46.431Z,16.40
2018-04-25T10:39:50.786Z,17.50
2018-04-25T10:45:55.977Z,18.90
2018-04-25T10:52:00.338Z,18.90
2018-04-25T10:58:06.315Z,17.20
2018-04-25T11:04:10.705Z,17.20
2018-04-25T11:10:15.104Z,16.00
2018-04-25T11:16:19.779Z,15.00
2018-04-25T11:22:24.178Z,14.30
2018-04-25T11:28:29.406Z,14.10
2018-04-25T11:34:33.922Z,14.10
2018-04-25T11:40:39.073Z,13.00
2018-04-25T11:46:43.444Z,13.00
2018-04-25T11:52:47.912Z,12.80
2018-04-25T11:58:52.282Z,12.90
2018-04-25T12:04:57.541Z,12.70
2018-04-25T12:11:01.919Z,12.70
2018-04-25T12:17:07.141Z,13.10
2018-04-25T12:23:11.515Z,13.10
2018-04-25T12:29:16.635Z,15.70
2018-04-25T12:35:21.005Z,15.70
2018-04-25T12:41:25.337Z,15.70
2018-04-25T12:47:30.427Z,15.20
2018-04-25T12:53:34.837Z,15.20
2018-04-25T12:59:39.967Z,14.70
2018-04-25T13:05:44.332Z,14.70
2018-04-25T13:11:49.551Z,14.70
2018-04-25T13:17:53.978Z,14.90
2018-04-25T13:23:58.344Z,15.10
2018-04-25T13:30:03.523Z,16.00
2018-04-25T13:36:08.667Z,16.30
2018-04-25T13:42:13.039Z,16.30
2018-04-25T13:48:17.396Z,16.80
2018-04-25T13:54:21.792Z,16.90
2018-04-25T14:00:26.152Z,16.30
2018-04-25T14:06:30.543Z,15.70
2018-04-25T14:12:34.896Z,15.20
2018-04-25T14:18:39.296Z,14.80
2018-04-25T14:24:43.731Z,14.60
2018-04-25T14:30:49.647Z,15.00
2018-04-25T14:36:54.024Z,15.00
2018-04-25T14:42:58.379Z,15.40
2018-04-25T14:49:03.612Z,17.30
2018-04-25T14:55:07.987Z,17.30
2018-04-25T15:01:12.365Z,18.30
2018-04-25T15:07:16.798Z,17.60
2018-04-25T15:13:21.936Z,15.40
2018-04-25T15:19:26.289Z,15.30
2018-04-25T15:25:30.730Z,15.40
2018-04-25T15:31:35.135Z,17.00
2018-04-25T15:37:39.542Z,16.30
2018-04-25T15:43:43.903Z,16.00
2018-04-25T15:49:48.378Z,15.80
2018-04-25T15:55:52.736Z,15.20
2018-04-25T16:01:57.118Z,15.20
2018-04-25T16:08:02.200Z,15.00
2018-04-25T16:14:08.083Z,14.70
2018-04-25T16:20:12.501Z,14.70
2018-04-25T16:26:17.794Z,14.10
2018-04-25T16:32:22.158Z,14.10
2018-04-25T16:38:27.432Z,15.90
2018-04-25T16:44:32.468Z,15.90
2018-04-25T16:50:36.815Z,16.00
2018-04-25T16:56:41.207Z,15.00
2018-04-25T17:02:45.560Z,14.30
2018-04-25T17:08:51.387Z,13.70
2018-04-25T17:14:55.762Z,13.60
2018-04-25T17:21:00.131Z,13.60
2018-04-25T17:27:05.273Z,14.10
2018-04-25T17:33:09.650Z,14.10
2018-04-25T17:39:14.047Z,13.80
2018-04-25T17:45:19.182Z,13.40
2018-04-25T17:51:23.541Z,13.40
2018-04-25T17:57:27.947Z,13.30
2018-04-25T18:03:32.288Z,13.30
2018-04-25T18:09:36.772Z,13.10
2018-04-25T18:15:41.173Z,13.20
2018-04-25T18:21:45.528Z,13.10
2018-04-25T18:27:50.093Z,13.00
2018-04-25T18:33:54.631Z,13.00
2018-04-25T18:39:59.780Z,12.70
2018-04-25T18:46:05.340Z,12.70
2018-04-25T18:52:09.750Z,12.60
2018-04-25T18:58:14.113Z,12.60
2018-04-25T19:04:18.503Z,12.40
2018-04-25T19:10:22.907Z,12.20
2018-04-25T19:16:27.324Z,12.00
2018-04-25T19:22:32.878Z,11.90
2018-04-25T19:28:37.577Z,11.90
2018-04-25T19:34:42.894Z,11.90
2018-04-25T19:40:47.337Z,11.80
2018-04-25T19:46:51.680Z,11.90
2018-04-25T19:52:56.051Z,12.00
2018-04-25T19:59:00.426Z,12.10
2018-04-25T20:05:04.896Z,12.20
2018-04-25T20:11:10.115Z,12.10
2018-04-25T20:17:14.570Z,12.10
2018-04-25T20:23:19.711Z,12.20
2018-04-25T20:29:24.140Z,12.20
2018-04-25T20:35:28.520Z,12.10
2018-04-25T20:41:33.013Z,12.10
2018-04-25T20:47:38.353Z,11.90
2018-04-25T20:53:42.713Z,11.90
2018-04-25T20:59:47.085Z,11.80
2018-04-25T21:05:51.452Z,11.60
2018-04-25T21:11:55.828Z,11.20
2018-04-25T21:18:00.206Z,10.90
2018-04-25T21:24:04.835Z,10.70
2018-04-25T21:30:09.978Z,10.20
2018-04-25T21:36:14.414Z,10.20
2018-04-25T21:42:18.903Z,10.10
2018-04-25T21:48:23.247Z,9.90
2018-04-25T21:54:28.374Z,9.80
2018-04-25T22:00:32.910Z,9.80
2018-04-25T22:06:37.324Z,9.70
2018-04-25T22:12:41.745Z,9.60
2018-04-25T22:18:46.180Z,9.60
2018-04-25T22:24:50.541Z,9.50
2018-04-25T22:30:54.911Z,9.30
2018-04-25T22:37:00.200Z,9.00
2018-04-25T22:43:04.649Z,9.00
2018-04-25T22:49:08.986Z,8.80
2018-04-25T22:55:13.485Z,8.60
2018-04-25T23:01:17.918Z,8.60
2018-04-25T23:07:22.270Z,8.70
2018-04-25T23:13:27.393Z,9.00
2018-04-25T23:19:31.985Z,9.00
2018-04-25T23:25:36.379Z,9.00
2018-04-25T23:31:40.723Z,9.10
2018-04-25T23:37:45.078Z,9.10
2018-04-25T23:43:50.226Z,9.10
2018-04-25T23:49:54.578Z,9.00
2018-04-25T23:55:58.926Z,9.10
